sensor_id;sensor_type;location;lat;lon;timestamp;pressure;altitude;pressure_sealevel;temperature;humidity
67109;BME280;54027;50.786;7.058;2023-05-10T00:01:02;100386.38;;;13.33;100.00
67109;BME280;54027;50.786;7.058;2023-05-10T00:03:28;100388.16;;;13.31;100.00
67109;BME280;54027;50.786;7.058;2023-05-10T00:05:54;100386.44;;;13.31;100.00
67109;BME280;54027;50.786;7.058;2023-05-10T00:08:19;100388.94;;;13.34;100.00
67109;BME280;54027;50.786;7.058;2023-05-10T00:10:45;100390.66;;;13.35;100.00
67109;BME280;54027;50.786;7.058;2023-05-10T00:13:10;100386.31;;;13.36;100.00
67109;BME280;54027;50.786;7.058;2023-05-10T00:15:35;100390.63;;;13.37;100.00
67109;BME280;54027;50.786;7.058;2023-05-10T00:18:01;100387.13;;;13.38;100.00
67109;BME280;54027;50.786;7.058;2023-05-10T00:20:26;100388.03;;;13.37;100.00
67109;BME280;54027;50.786;7.058;2023-05-10T00:22:52;100394.94;;;13.38;100.00
67109;BME280;54027;50.786;7.058;2023-05-10T00:25:17;100388.00;;;13.38;100.00
67109;BME280;54027;50.786;7.058;2023-05-10T00:27:43;100385.41;;;13.38;100.00
67109;BME280;54027;50.786;7.058;2023-05-10T00:30:09;100380.22;;;13.38;100.00
67109;BME280;54027;50.786;7.058;2023-05-10T00:32:34;100381.88;;;13.39;100.00
67109;BME280;54027;50.786;7.058;2023-05-10T00:35:00;100382.81;;;13.38;100.00
67109;BME280;54027;50.786;7.058;2023-05-10T00:37:25;100385.41;;;13.38;100.00
67109;BME280;54027;50.786;7.058;2023-05-10T00:39:50;100385.41;;;13.38;100.00
67109;BME280;54027;50.786;7.058;2023-05-10T00:42:16;100380.22;;;13.38;100.00
67109;BME280;54027;50.786;7.058;2023-05-10T00:44:41;100382.81;;;13.38;100.00
67109;BME280;54027;50.786;7.058;2023-05-10T00:47:07;100388.00;;;13.38;100.00
67109;BME280;54027;50.786;7.058;2023-05-10T00:49:33;100383.69;;;13.37;100.00
67109;BME280;54027;50.786;7.058;2023-05-10T00:51:59;100389.69;;;13.39;100.00
67109;BME280;54027;50.786;7.058;2023-05-10T00:54:24;100396.59;;;13.39;100.00
67109;BME280;54027;50.786;7.058;2023-05-10T00:56:51;100398.31;;;13.41;100.00
67109;BME280;54027;50.786;7.058;2023-05-10T00:59:17;100382.72;;;13.41;100.00
67109;BME280;54027;50.786;7.058;2023-05-10T01:01:44;100388.75;;;13.42;100.00
67109;BME280;54027;50.786;7.058;2023-05-10T01:04:11;100384.41;;;13.42;100.00
67109;BME280;54027;50.786;7.058;2023-05-10T01:06:38;100384.41;;;13.42;100.00
67109;BME280;54027;50.786;7.058;2023-05-10T01:09:03;100382.72;;;13.41;100.00
67109;BME280;54027;50.786;7.058;2023-05-10T01:11:29;100389.59;;;13.42;100.00
67109;BME280;54027;50.786;7.058;2023-05-10T01:13:56;100388.72;;;13.43;100.00
67109;BME280;54027;50.786;7.058;2023-05-10T01:16:23;100395.59;;;13.44;100.00
67109;BME280;54027;50.786;7.058;2023-05-10T01:18:50;100390.41;;;13.44;100.00
67109;BME280;54027;50.786;7.058;2023-05-10T01:22:04;100391.25;;;13.45;100.00
67109;BME280;54027;50.786;7.058;2023-05-10T01:37:20;100389.44;;;13.48;100.00
67109;BME280;54027;50.786;7.058;2023-05-10T01:39:47;100386.91;;;13.47;100.00
67109;BME280;54027;50.786;7.058;2023-05-10T01:42:20;100381.78;;;13.44;100.00
67109;BME280;54027;50.786;7.058;2023-05-10T01:50:01;100394.00;;;13.40;100.00
67109;BME280;54027;50.786;7.058;2023-05-10T01:52:33;100387.91;;;13.41;100.00
67109;BME280;54027;50.786;7.058;2023-05-10T01:55:06;100388.75;;;13.42;100.00
67109;BME280;54027;50.786;7.058;2023-05-10T01:57:35;100388.78;;;13.40;100.00
67109;BME280;54027;50.786;7.058;2023-05-10T02:00:02;100393.13;;;13.40;100.00
67109;BME280;54027;50.786;7.058;2023-05-10T02:02:36;100394.94;;;13.38;100.00
67109;BME280;54027;50.786;7.058;2023-05-10T02:05:04;100396.69;;;13.36;100.00
67109;BME280;54027;50.786;7.058;2023-05-10T02:07:32;100387.28;;;13.32;100.00
67109;BME280;54027;50.786;7.058;2023-05-10T02:09:58;100386.47;;;13.30;100.00
67109;BME280;54027;50.786;7.058;2023-05-10T02:12:25;100392.56;;;13.29;100.00
67109;BME280;54027;50.786;7.058;2023-05-10T02:14:53;100390.84;;;13.28;100.00
67109;BME280;54027;50.786;7.058;2023-05-10T02:17:19;100399.50;;;13.27;100.00
67109;BME280;54027;50.786;7.058;2023-05-10T02:19:47;100400.44;;;13.26;100.00
67109;BME280;54027;50.786;7.058;2023-05-10T02:22:13;100398.72;;;13.25;100.00
67109;BME280;54027;50.786;7.058;2023-05-10T02:24:41;100410.84;;;13.24;100.00
67109;BME280;54027;50.786;7.058;2023-05-10T02:27:08;100409.97;;;13.24;100.00
67109;BME280;54027;50.786;7.058;2023-05-10T02:29:35;100399.56;;;13.25;100.00
67109;BME280;54027;50.786;7.058;2023-05-10T02:32:02;100401.28;;;13.26;100.00
67109;BME280;54027;50.786;7.058;2023-05-10T02:34:28;100403.88;;;13.26;100.00
67109;BME280;54027;50.786;7.058;2023-05-10T02:36:55;100403.81;;;13.28;100.00
67109;BME280;54027;50.786;7.058;2023-05-10T02:39:22;100415.06;;;13.28;100.00
67109;BME280;54027;50.786;7.058;2023-05-10T02:41:50;100414.19;;;13.29;100.00
67109;BME280;54027;50.786;7.058;2023-05-10T02:44:20;100415.00;;;13.31;100.00
67109;BME280;54027;50.786;7.058;2023-05-10T02:46:46;100412.34;;;13.33;100.00
67109;BME280;54027;50.786;7.058;2023-05-10T02:49:13;100410.59;;;13.35;100.00
67109;BME280;54027;50.786;7.058;2023-05-10T02:51:43;100413.13;;;13.36;100.00
67109;BME280;54027;50.786;7.058;2023-05-10T02:54:12;100413.97;;;13.37;100.00
67109;BME280;54027;50.786;7.058;2023-05-10T02:56:45;100417.44;;;13.37;100.00
67109;BME280;54027;50.786;7.058;2023-05-10T02:59:12;100412.19;;;13.39;100.00
67109;BME280;54027;50.786;7.058;2023-05-10T03:01:37;100410.50;;;13.38;100.00
67109;BME280;54027;50.786;7.058;2023-05-10T03:04:03;100416.56;;;13.38;100.00
67109;BME280;54027;50.786;7.058;2023-05-10T03:06:29;100413.03;;;13.39;100.00
67109;BME280;54027;50.786;7.058;2023-05-10T03:08:54;100413.03;;;13.41;100.00
67109;BME280;54027;50.786;7.058;2023-05-10T03:11:37;100412.97;;;13.42;100.00
67109;BME280;54027;50.786;7.058;2023-05-10T03:17:08;100414.63;;;13.45;100.00
67109;BME280;54027;50.786;7.058;2023-05-10T03:19:51;100425.06;;;13.43;100.00
67109;BME280;54027;50.786;7.058;2023-05-10T03:22:33;100427.66;;;13.43;100.00
67109;BME280;54027;50.786;7.058;2023-05-10T03:25:02;100423.47;;;13.38;100.00
67109;BME280;54027;50.786;7.058;2023-05-10T03:27:31;100427.75;;;13.39;100.00
67109;BME280;54027;50.786;7.058;2023-05-10T03:29:57;100427.75;;;13.40;100.00
67109;BME280;54027;50.786;7.058;2023-05-10T03:32:23;100426.88;;;13.40;100.00
67109;BME280;54027;50.786;7.058;2023-05-10T03:34:48;100432.97;;;13.39;100.00
67109;BME280;54027;50.786;7.058;2023-05-10T03:37:13;100437.25;;;13.40;100.00
67109;BME280;54027;50.786;7.058;2023-05-10T03:39:39;100435.56;;;13.39;100.00
67109;BME280;54027;50.786;7.058;2023-05-10T03:42:04;100439.91;;;13.38;100.00
67109;BME280;54027;50.786;7.058;2023-05-10T03:44:30;100438.22;;;13.36;100.00
67109;BME280;54027;50.786;7.058;2023-05-10T03:46:56;100441.66;;;13.38;100.00
67109;BME280;54027;50.786;7.058;2023-05-10T03:49:22;100440.78;;;13.37;100.00
67109;BME280;54027;50.786;7.058;2023-05-10T03:51:47;100445.94;;;13.39;100.00
67109;BME280;54027;50.786;7.058;2023-05-10T03:54:13;100450.25;;;13.40;100.00
67109;BME280;54027;50.786;7.058;2023-05-10T03:56:38;100444.19;;;13.39;100.00
67109;BME280;54027;50.786;7.058;2023-05-10T03:59:03;100446.78;;;13.41;100.00
67109;BME280;54027;50.786;7.058;2023-05-10T04:01:33;100445.91;;;13.40;100.00
67109;BME280;54027;50.786;7.058;2023-05-10T04:03:58;100450.22;;;13.41;100.00
67109;BME280;54027;50.786;7.058;2023-05-10T04:06:24;100450.13;;;13.44;100.00
67109;BME280;54027;50.786;7.058;2023-05-10T04:08:49;100448.44;;;13.43;100.00
67109;BME280;54027;50.786;7.058;2023-05-10T04:11:14;100445.75;;;13.46;100.00
67109;BME280;54027;50.786;7.058;2023-05-10T04:13:40;100445.72;;;13.48;100.00
67109;BME280;54027;50.786;7.058;2023-05-10T04:16:05;100443.09;;;13.49;100.00
67109;BME280;54027;50.786;7.058;2023-05-10T04:18:31;100446.53;;;13.50;100.00
67109;BME280;54027;50.786;7.058;2023-05-10T04:20:57;100446.50;;;13.51;100.00
67109;BME280;54027;50.786;7.058;2023-05-10T04:23:22;100450.75;;;13.54;100.00
67109;BME280;54027;50.786;7.058;2023-05-10T04:25:48;100448.94;;;13.57;100.00
67109;BME280;54027;50.786;7.058;2023-05-10T04:28:14;100450.66;;;13.59;100.00
67109;BME280;54027;50.786;7.058;2023-05-10T04:30:39;100451.50;;;13.59;100.00
67109;BME280;54027;50.786;7.058;2023-05-10T04:33:05;100449.66;;;13.63;100.00
67109;BME280;54027;50.786;7.058;2023-05-10T04:35:31;100451.34;;;13.65;100.00
67109;BME280;54027;50.786;7.058;2023-05-10T04:37:56;100459.94;;;13.67;100.00
67109;BME280;54027;50.786;7.058;2023-05-10T04:40:21;100456.53;;;13.65;100.00
67109;BME280;54027;50.786;7.058;2023-05-10T04:42:47;100459.13;;;13.65;100.00
67109;BME280;54027;50.786;7.058;2023-05-10T04:45:12;100453.09;;;13.65;100.00
67109;BME280;54027;50.786;7.058;2023-05-10T04:47:40;100455.69;;;13.65;100.00
67109;BME280;54027;50.786;7.058;2023-05-10T04:50:05;100462.63;;;13.63;100.00
67109;BME280;54027;50.786;7.058;2023-05-10T04:52:31;100457.44;;;13.63;100.00
67109;BME280;54027;50.786;7.058;2023-05-10T04:54:56;100460.91;;;13.63;100.00
67109;BME280;54027;50.786;7.058;2023-05-10T04:57:22;100458.22;;;13.66;100.00
67109;BME280;54027;50.786;7.058;2023-05-10T04:59:47;100472.13;;;13.65;100.00
67109;BME280;54027;50.786;7.058;2023-05-10T05:02:13;100466.94;;;13.65;100.00
67109;BME280;54027;50.786;7.058;2023-05-10T05:04:38;100471.25;;;13.65;100.00
67109;BME280;54027;50.786;7.058;2023-05-10T05:07:03;100479.94;;;13.64;100.00
67109;BME280;54027;50.786;7.058;2023-05-10T05:09:29;100476.47;;;13.63;100.00
67109;BME280;54027;50.786;7.058;2023-05-10T05:11:54;100474.75;;;13.64;100.00
67109;BME280;54027;50.786;7.058;2023-05-10T05:14:20;100479.00;;;13.66;100.00
67109;BME280;54027;50.786;7.058;2023-05-10T05:16:50;100487.53;;;13.71;100.00
67109;BME280;54027;50.786;7.058;2023-05-10T05:19:15;100487.28;;;13.80;100.00
67109;BME280;54027;50.786;7.058;2023-05-10T05:21:41;100491.41;;;13.89;100.00
67109;BME280;54027;50.786;7.058;2023-05-10T05:24:06;100494.75;;;13.94;100.00
67109;BME280;54027;50.786;7.058;2023-05-10T05:26:32;100497.09;;;14.03;100.00
67109;BME280;54027;50.786;7.058;2023-05-10T05:28:58;100498.75;;;14.05;100.00
67109;BME280;54027;50.786;7.058;2023-05-10T05:31:23;100510.25;;;13.97;100.00
67109;BME280;54027;50.786;7.058;2023-05-10T05:33:49;100502.38;;;14.00;100.00
67109;BME280;54027;50.786;7.058;2023-05-10T05:36:14;100498.88;;;14.01;100.00
67109;BME280;54027;50.786;7.058;2023-05-10T05:38:39;100511.78;;;14.04;100.00
67109;BME280;54027;50.786;7.058;2023-05-10T05:41:05;100506.56;;;14.05;100.00
67109;BME280;54027;50.786;7.058;2023-05-10T05:43:30;100516.06;;;14.06;100.00
67109;BME280;54027;50.786;7.058;2023-05-10T05:45:56;100509.78;;;14.13;100.00
67109;BME280;54027;50.786;7.058;2023-05-10T05:48:23;100513.25;;;14.14;100.00
67109;BME280;54027;50.786;7.058;2023-05-10T05:50:48;100513.16;;;14.17;100.00
67109;BME280;54027;50.786;7.058;2023-05-10T05:53:13;100523.47;;;14.20;100.00
67109;BME280;54027;50.786;7.058;2023-05-10T05:55:39;100520.16;;;14.15;100.00
67109;BME280;54027;50.786;7.058;2023-05-10T05:58:04;100522.00;;;14.10;100.00
67109;BME280;54027;50.786;7.058;2023-05-10T06:00:29;100521.28;;;14.05;100.00
67109;BME280;54027;50.786;7.058;2023-05-10T06:02:55;100536.78;;;14.09;100.00
67109;BME280;54027;50.786;7.058;2023-05-10T06:05:20;100525.44;;;14.12;100.00
67109;BME280;54027;50.786;7.058;2023-05-10T06:07:46;100535.63;;;14.20;100.00
67109;BME280;54027;50.786;7.058;2023-05-10T06:10:11;100535.38;;;14.29;100.00
67109;BME280;54027;50.786;7.058;2023-05-10T06:12:36;100535.34;;;14.30;100.00
67109;BME280;54027;50.786;7.058;2023-05-10T06:15:03;100538.56;;;14.40;100.00
67109;BME280;54027;50.786;7.058;2023-05-10T06:17:28;100537.44;;;14.48;100.00
67109;BME280;54027;50.786;7.058;2023-05-10T06:19:54;100542.53;;;14.53;100.00
67109;BME280;54027;50.786;7.058;2023-05-10T06:22:20;100542.22;;;14.63;100.00
67109;BME280;54027;50.786;7.058;2023-05-10T06:24:47;100545.66;;;14.65;100.00
67109;BME280;54027;50.786;7.058;2023-05-10T06:27:13;100548.13;;;14.70;100.00
67109;BME280;54027;50.786;7.058;2023-05-10T06:29:38;100550.72;;;14.70;100.00
67109;BME280;54027;50.786;7.058;2023-05-10T06:32:04;100549.91;;;14.68;100.00
67109;BME280;54027;50.786;7.058;2023-05-10T06:34:29;100558.56;;;14.69;100.00
67109;BME280;54027;50.786;7.058;2023-05-10T06:36:54;100562.94;;;14.66;100.00
67109;BME280;54027;50.786;7.058;2023-05-10T06:39:20;100564.75;;;14.64;100.00
67109;BME280;54027;50.786;7.058;2023-05-10T06:41:45;100569.06;;;14.65;100.00
67109;BME280;54027;50.786;7.058;2023-05-10T06:44:11;100568.16;;;14.66;100.00
67109;BME280;54027;50.786;7.058;2023-05-10T06:46:36;100571.69;;;14.64;100.00
67109;BME280;54027;50.786;7.058;2023-05-10T06:49:01;100567.25;;;14.68;100.00
67109;BME280;54027;50.786;7.058;2023-05-10T06:51:27;100575.06;;;14.68;100.00
67109;BME280;54027;50.786;7.058;2023-05-10T06:53:52;100570.63;;;14.71;100.00
67109;BME280;54027;50.786;7.058;2023-05-10T06:56:18;100574.91;;;14.74;100.00
67109;BME280;54027;50.786;7.058;2023-05-10T06:58:43;100573.00;;;14.79;100.00
67109;BME280;54027;50.786;7.058;2023-05-10T07:01:09;100575.59;;;14.80;100.00
67109;BME280;54027;50.786;7.058;2023-05-10T07:03:35;100581.47;;;14.87;100.00
67109;BME280;54027;50.786;7.058;2023-05-10T07:06:04;100570.91;;;14.91;100.00
67109;BME280;54027;50.786;7.058;2023-05-10T07:08:35;100571.50;;;15.01;100.00
67109;BME280;54027;50.786;7.058;2023-05-10T07:11:05;100578.03;;;15.14;100.00
67109;BME280;54027;50.786;7.058;2023-05-10T07:13:32;100572.00;;;15.13;99.82
67109;BME280;54027;50.786;7.058;2023-05-10T07:15:58;100575.69;;;15.06;98.45
67109;BME280;54027;50.786;7.058;2023-05-10T07:18:25;100580.97;;;15.03;97.74
67109;BME280;54027;50.786;7.058;2023-05-10T07:20:50;100584.63;;;14.96;98.18
67109;BME280;54027;50.786;7.058;2023-05-10T07:23:16;100581.50;;;14.85;96.93
67109;BME280;54027;50.786;7.058;2023-05-10T07:25:45;100582.72;;;14.74;96.57
67109;BME280;54027;50.786;7.058;2023-05-10T07:28:11;100584.59;;;14.69;97.49
67109;BME280;54027;50.786;7.058;2023-05-10T07:30:36;100592.59;;;14.61;98.64
67109;BME280;54027;50.786;7.058;2023-05-10T07:33:01;100584.09;;;14.54;98.99
67109;BME280;54027;50.786;7.058;2023-05-10T07:35:27;100589.47;;;14.48;99.01
67109;BME280;54027;50.786;7.058;2023-05-10T07:37:52;100592.13;;;14.47;99.14
67109;BME280;54027;50.786;7.058;2023-05-10T07:40:17;100587.06;;;14.42;99.24
67109;BME280;54027;50.786;7.058;2023-05-10T07:42:43;100593.94;;;14.43;99.70
67109;BME280;54027;50.786;7.058;2023-05-10T07:45:09;100594.78;;;14.45;100.00
67109;BME280;54027;50.786;7.058;2023-05-10T07:47:34;100594.47;;;14.56;100.00
67109;BME280;54027;50.786;7.058;2023-05-10T07:50:00;100596.03;;;14.63;100.00
67109;BME280;54027;50.786;7.058;2023-05-10T07:52:25;100597.50;;;14.72;100.00
67109;BME280;54027;50.786;7.058;2023-05-10T07:54:50;100599.94;;;14.78;99.34
67109;BME280;54027;50.786;7.058;2023-05-10T07:57:17;100601.44;;;14.86;99.38
67109;BME280;54027;50.786;7.058;2023-05-10T07:59:43;100603.50;;;15.04;100.00
67109;BME280;54027;50.786;7.058;2023-05-10T08:02:09;100605.69;;;15.18;99.28
67109;BME280;54027;50.786;7.058;2023-05-10T08:04:35;100604.84;;;15.17;97.46
67109;BME280;54027;50.786;7.058;2023-05-10T08:07:00;100607.06;;;15.31;98.21
67109;BME280;54027;50.786;7.058;2023-05-10T08:09:25;100610.97;;;15.44;98.23
67109;BME280;54027;50.786;7.058;2023-05-10T08:11:51;100606.19;;;15.58;98.26
67109;BME280;54027;50.786;7.058;2023-05-10T08:14:16;100597.81;;;15.76;98.38
67109;BME280;54027;50.786;7.058;2023-05-10T08:16:42;100604.94;;;15.71;93.61
67109;BME280;54027;50.786;7.058;2023-05-10T08:19:07;100610.63;;;15.84;95.15
67109;BME280;54027;50.786;7.058;2023-05-10T08:21:33;100603.16;;;16.00;96.62
67109;BME280;54027;50.786;7.058;2023-05-10T08:23:58;100604.84;;;16.01;95.30
67109;BME280;54027;50.786;7.058;2023-05-10T08:26:24;100610.75;;;16.06;95.71
67109;BME280;54027;50.786;7.058;2023-05-10T08:28:49;100611.59;;;16.06;96.60
67109;BME280;54027;50.786;7.058;2023-05-10T08:31:14;100609.34;;;16.22;96.61
67109;BME280;54027;50.786;7.058;2023-05-10T08:33:40;100618.34;;;16.38;95.44
67109;BME280;54027;50.786;7.058;2023-05-10T08:36:06;100610.81;;;16.54;94.66
67109;BME280;54027;50.786;7.058;2023-05-10T08:38:31;100600.75;;;16.93;94.53
67109;BME280;54027;50.786;7.058;2023-05-10T08:40:57;100609.06;;;17.04;92.81
67109;BME280;54027;50.786;7.058;2023-05-10T08:43:27;100609.41;;;17.16;91.48
67109;BME280;54027;50.786;7.058;2023-05-10T08:45:54;100613.22;;;17.31;90.98
67109;BME280;54027;50.786;7.058;2023-05-10T08:48:23;100614.50;;;17.21;89.51
67109;BME280;54027;50.786;7.058;2023-05-10T08:50:49;100612.97;;;17.37;88.91
67109;BME280;54027;50.786;7.058;2023-05-10T08:53:18;100619.41;;;17.28;88.05
67109;BME280;54027;50.786;7.058;2023-05-10T08:55:45;100623.91;;;17.02;88.14
67109;BME280;54027;50.786;7.058;2023-05-10T08:58:11;100626.00;;;16.67;88.49
67109;BME280;54027;50.786;7.058;2023-05-10T09:00:36;100625.69;;;16.52;88.79
67109;BME280;54027;50.786;7.058;2023-05-10T09:03:05;100628.50;;;16.46;88.39
67109;BME280;54027;50.786;7.058;2023-05-10T09:05:31;100634.13;;;16.35;88.23
67109;BME280;54027;50.786;7.058;2023-05-10T09:07:57;100633.81;;;16.18;86.71
67109;BME280;54027;50.786;7.058;2023-05-10T09:10:25;100639.88;;;16.18;88.53
67109;BME280;54027;50.786;7.058;2023-05-10T09:12:53;100639.66;;;16.00;88.62
67109;BME280;54027;50.786;7.058;2023-05-10T09:15:19;100639.53;;;16.03;90.30
67109;BME280;54027;50.786;7.058;2023-05-10T09:17:45;100653.47;;;16.02;91.86
67109;BME280;54027;50.786;7.058;2023-05-10T09:20:11;100649.03;;;15.78;92.13
67109;BME280;54027;50.786;7.058;2023-05-10T09:22:36;100666.78;;;15.66;93.52
67109;BME280;54027;50.786;7.058;2023-05-10T09:25:10;100661.66;;;15.63;94.69
67109;BME280;54027;50.786;7.058;2023-05-10T09:27:37;100665.47;;;15.50;94.78
67109;BME280;54027;50.786;7.058;2023-05-10T09:30:04;100667.41;;;15.44;94.72
67109;BME280;54027;50.786;7.058;2023-05-10T09:32:46;100669.00;;;15.49;96.73
67109;BME280;54027;50.786;7.058;2023-05-10T09:35:14;100665.31;;;15.56;96.90
67109;BME280;54027;50.786;7.058;2023-05-10T09:37:41;100672.69;;;15.71;97.15
67109;BME280;54027;50.786;7.058;2023-05-10T09:40:11;100671.97;;;15.94;96.85
67109;BME280;54027;50.786;7.058;2023-05-10T09:42:37;100675.81;;;16.09;95.92
67109;BME280;54027;50.786;7.058;2023-05-10T09:45:05;100671.47;;;16.09;92.78
67109;BME280;54027;50.786;7.058;2023-05-10T09:47:33;100668.75;;;16.39;93.81
67109;BME280;54027;50.786;7.058;2023-05-10T09:49:59;100671.91;;;16.48;92.02
67109;BME280;54027;50.786;7.058;2023-05-10T09:52:29;100671.69;;;16.54;92.68
67109;BME280;54027;50.786;7.058;2023-05-10T09:54:54;100680.28;;;16.58;91.90
67109;BME280;54027;50.786;7.058;2023-05-10T09:57:21;100670.59;;;16.61;91.40
67109;BME280;54027;50.786;7.058;2023-05-10T09:59:47;100676.34;;;16.46;88.46
67109;BME280;54027;50.786;7.058;2023-05-10T10:02:13;100672.19;;;16.41;88.70
67109;BME280;54027;50.786;7.058;2023-05-10T10:04:40;100673.25;;;16.35;88.00
67109;BME280;54027;50.786;7.058;2023-05-10T10:07:05;100676.06;;;16.29;88.31
67109;BME280;54027;50.786;7.058;2023-05-10T10:09:32;100678.34;;;16.38;88.27
67109;BME280;54027;50.786;7.058;2023-05-10T10:11:59;100679.09;;;16.42;89.74
67109;BME280;54027;50.786;7.058;2023-05-10T10:14:25;100676.59;;;16.63;90.12
67109;BME280;54027;50.786;7.058;2023-05-10T10:16:51;100674.47;;;16.74;87.08
67109;BME280;54027;50.786;7.058;2023-05-10T10:19:18;100671.94;;;16.73;85.15
67109;BME280;54027;50.786;7.058;2023-05-10T10:21:45;100675.72;;;16.89;84.96
67109;BME280;54027;50.786;7.058;2023-05-10T10:24:10;100664.69;;;17.06;81.87
67109;BME280;54027;50.786;7.058;2023-05-10T10:26:36;100662.84;;;17.08;81.43
67109;BME280;54027;50.786;7.058;2023-05-10T10:29:30;100677.97;;;17.00;82.44
67109;BME280;54027;50.786;7.058;2023-05-10T10:34:33;100680.81;;;16.67;83.44
67109;BME280;54027;50.786;7.058;2023-05-10T10:37:04;100690.50;;;16.64;86.11
67109;BME280;54027;50.786;7.058;2023-05-10T10:39:30;100685.53;;;16.56;85.13
67109;BME280;54027;50.786;7.058;2023-05-10T10:41:56;100669.16;;;16.53;82.31
67109;BME280;54027;50.786;7.058;2023-05-10T10:47:10;100671.88;;;17.22;81.23
67109;BME280;54027;50.786;7.058;2023-05-10T10:50:04;100674.78;;;17.83;80.61
67109;BME280;54027;50.786;7.058;2023-05-10T10:52:31;100655.56;;;18.27;76.44
67109;BME280;54027;50.786;7.058;2023-05-10T10:57:58;100647.88;;;19.03;74.15
67109;BME280;54027;50.786;7.058;2023-05-10T11:00:29;100630.09;;;18.71;71.01
67109;BME280;54027;50.786;7.058;2023-05-10T11:03:06;100647.56;;;18.50;72.46
67109;BME280;54027;50.786;7.058;2023-05-10T11:05:37;100660.59;;;18.32;72.36
67109;BME280;54027;50.786;7.058;2023-05-10T11:10:48;100640.50;;;17.90;71.03
67109;BME280;54027;50.786;7.058;2023-05-10T11:13:13;100658.34;;;17.79;71.47
67109;BME280;54027;50.786;7.058;2023-05-10T11:15:40;100655.94;;;17.75;71.66
67109;BME280;54027;50.786;7.058;2023-05-10T11:18:20;100640.38;;;18.15;70.36
67109;BME280;54027;50.786;7.058;2023-05-10T11:20:58;100636.06;;;18.55;70.10
67109;BME280;54027;50.786;7.058;2023-05-10T11:26:07;100640.00;;;18.85;69.14
67109;BME280;54027;50.786;7.058;2023-05-10T11:28:34;100653.25;;;18.80;69.24
67109;BME280;54027;50.786;7.058;2023-05-10T11:31:00;100630.94;;;18.72;67.81
67109;BME280;54027;50.786;7.058;2023-05-10T11:33:25;100629.59;;;18.63;67.33
67109;BME280;54027;50.786;7.058;2023-05-10T11:35:51;100651.69;;;18.76;68.19
67109;BME280;54027;50.786;7.058;2023-05-10T11:38:16;100665.94;;;19.10;69.17
67109;BME280;54027;50.786;7.058;2023-05-10T11:40:42;100626.44;;;19.14;66.68
67109;BME280;54027;50.786;7.058;2023-05-10T11:43:08;100622.59;;;19.21;66.28
67109;BME280;54027;50.786;7.058;2023-05-10T11:45:35;100641.59;;;19.45;66.88
67109;BME280;54027;50.786;7.058;2023-05-10T11:48:01;100599.66;;;19.45;64.99
67109;BME280;54027;50.786;7.058;2023-05-10T11:50:27;100601.06;;;19.15;64.47
67109;BME280;54027;50.786;7.058;2023-05-10T11:52:56;100636.41;;;18.87;65.78
67109;BME280;54027;50.786;7.058;2023-05-10T11:55:22;100630.50;;;18.62;65.54
67109;BME280;54027;50.786;7.058;2023-05-10T11:57:53;100635.59;;;18.45;65.81
67109;BME280;54027;50.786;7.058;2023-05-10T12:00:18;100648.69;;;18.45;67.23
67109;BME280;54027;50.786;7.058;2023-05-10T12:02:45;100640.25;;;18.59;66.54
67109;BME280;54027;50.786;7.058;2023-05-10T12:05:10;100662.66;;;18.86;67.44
67109;BME280;54027;50.786;7.058;2023-05-10T12:07:36;100648.72;;;19.04;66.60
67109;BME280;54027;50.786;7.058;2023-05-10T12:10:12;100621.25;;;18.94;64.91
67109;BME280;54027;50.786;7.058;2023-05-10T12:12:44;100594.41;;;19.45;63.54
67109;BME280;54027;50.786;7.058;2023-05-10T12:15:17;100568.91;;;19.48;61.18
67109;BME280;54027;50.786;7.058;2023-05-10T12:17:45;100569.06;;;19.62;60.62
67109;BME280;54027;50.786;7.058;2023-05-10T12:20:21;100579.75;;;19.41;60.73
67109;BME280;54027;50.786;7.058;2023-05-10T12:22:50;100600.50;;;19.45;61.75
67109;BME280;54027;50.786;7.058;2023-05-10T12:25:20;100580.53;;;19.43;60.78
67109;BME280;54027;50.786;7.058;2023-05-10T12:27:53;100596.25;;;19.61;61.00
67109;BME280;54027;50.786;7.058;2023-05-10T12:30:27;100559.06;;;20.06;59.02
67109;BME280;54027;50.786;7.058;2023-05-10T12:32:53;100561.19;;;19.98;59.04
67109;BME280;54027;50.786;7.058;2023-05-10T12:35:19;100563.31;;;19.73;58.58
67109;BME280;54027;50.786;7.058;2023-05-10T12:37:50;100591.22;;;19.74;59.51
67109;BME280;54027;50.786;7.058;2023-05-10T12:40:16;100571.84;;;19.59;59.30
67109;BME280;54027;50.786;7.058;2023-05-10T12:42:41;100610.41;;;19.57;60.90
67109;BME280;54027;50.786;7.058;2023-05-10T12:45:08;100619.31;;;19.72;60.70
67109;BME280;54027;50.786;7.058;2023-05-10T12:47:33;100574.38;;;19.44;58.69
67109;BME280;54027;50.786;7.058;2023-05-10T12:50:00;100616.47;;;19.41;61.40
67109;BME280;54027;50.786;7.058;2023-05-10T12:52:26;100583.38;;;19.38;59.43
67109;BME280;54027;50.786;7.058;2023-05-10T12:54:52;100644.78;;;19.14;62.45
67109;BME280;54027;50.786;7.058;2023-05-10T12:57:18;100592.94;;;19.39;60.27
67109;BME280;54027;50.786;7.058;2023-05-10T12:59:44;100618.78;;;19.28;61.20
67109;BME280;54027;50.786;7.058;2023-05-10T13:02:09;100634.09;;;19.19;61.96
67109;BME280;54027;50.786;7.058;2023-05-10T13:04:35;100636.00;;;18.96;62.11
67109;BME280;54027;50.786;7.058;2023-05-10T13:07:04;100641.88;;;19.01;62.41
67109;BME280;54027;50.786;7.058;2023-05-10T13:09:30;100644.66;;;19.17;62.64
67109;BME280;54027;50.786;7.058;2023-05-10T13:11:55;100618.38;;;19.19;61.11
67109;BME280;54027;50.786;7.058;2023-05-10T13:14:21;100637.19;;;19.27;61.73
67109;BME280;54027;50.786;7.058;2023-05-10T13:16:47;100627.63;;;19.44;60.70
67109;BME280;54027;50.786;7.058;2023-05-10T13:19:13;100630.19;;;19.46;61.58